Strona główna
METAR-TAF:

METAR-TAF

Lotnisko :

Port lotniczy Radom-Sadków

Radom, Polska

Szerokość geograficzna: 51-23-21N, Długość geograficzna: 21-12-49E, wysokość: 186 m

Aktualna obserwacja pogody

Raport powstał 4 godziny i 57 minut temu, godzina 14:00 UTC
Wiatr 9 kt od północny zachód
Temperatura 17°C
Wilgotność 88%
Ciśnienie 1026 hPa
Widzialność 10 km lub więcej
Rozproszone chmury na wysokości 2200 ft

METAR: EPRA 211400Z 32009KT 9999 SCT022 17/15 Q1026

czas: 20:57 (18:57 UTC)

Prognoza

Raport powstał 1 godzina i 57 minut temu, godzina 17:00 UTC
Prognoza ważna od 21 godzina 18 UTC do 22 godzina 03 UTC
Wiatr 4 kt od wschodnio-północny wschód
Widzialność 10 km lub więcej
Brak chmur poniżej 1500 m i brak chmur cumulonimbus
Prawdopodobieństwo 40%
od 22 godzina 00 UTC do 22 godzina 03 UTC
Widzialność: 5000 m
Przerywane chmury na wysokości 700 ft
zamglenie

TAF: EPRA 211700Z 2118/2203 06004KT CAVOK PROB40 2200/2203 5000 BR BKN007

Obserwacja i prognoza pogody dla ponad 4000 lotnisk (raport METAR i TAF).

Dostępne stacje oznaczono żółtymi i czerwonymi punktami na mapie.

Najedź kursorem aby zobaczyć nazwę stacji.

Kliknij aby zobaczyć obserwacje i prognozy pogody.

Aby zmienić mapę: kliknij na zielony przycisk z czarnym krzyżykiem, aby powiększyć; na zielony przycisk z myślnikiem, aby pomniejszyć; na zielone strzałki, aby przejść do map sąsiednich.


METAR-TAF: